KPAE

Snohomish County (Paine Field) Airport

Everett, Washington, USA
KPAE 210520Z 2106/2206 VRB04KT P6SM BKN250 FM211000 21010KT P6SM BKN010 FM211600 18008KT P6SM OVC015 FM211800 22007KT P6SM OVC025 FM212100 22007KT P6SM BKN035 FM220050 22007KT P6SM SCT040 FM220500 18006KT P6SM OVC030
Issued Valid From Valid To
Jun-21 @ 05:20 UTC
(5 hours ago)
Jun-21 @ 06:00 UTC
(4 hours ago)
Jun-22 @ 06:00 UTC
(in 20 hours)
Expired Click to View Jun-21 @ 06:00 to Jun-21 @ 10:00
KPAE 210520Z 2106/2206 VRB04KT P6SM BKN250
Wind Visibility Clouds
Variable at 4 knots Greater than 6 miles
  • Broken at 25,000' AGL
From Jun-21 @ 10:00 to Jun-21 @ 16:00
FM211000 21010KT P6SM BKN010
Wind Visibility Clouds
210° at 10 knots Greater than 6 miles
  • Broken at 1,000' AGL
From Jun-21 @ 16:00 to Jun-21 @ 18:00
FM211600 18008KT P6SM OVC015
Wind Visibility Clouds
180° at 8 knots Greater than 6 miles
  • Overcast at 1,500' AGL
From Jun-21 @ 18:00 to Jun-21 @ 21:00
FM211800 22007KT P6SM OVC025
Wind Visibility Clouds
220° at 7 knots Greater than 6 miles
  • Overcast at 2,500' AGL
From Jun-21 @ 21:00 to Jun-22 @ 00:50
FM212100 22007KT P6SM BKN035
Wind Visibility Clouds
220° at 7 knots Greater than 6 miles
  • Broken at 3,500' AGL
From Jun-22 @ 00:50 to Jun-22 @ 05:00
FM220050 22007KT P6SM SCT040
Wind Visibility Clouds
220° at 7 knots Greater than 6 miles
  • Scattered at 4,000' AGL
From Jun-22 @ 05:00 to Jun-22 @ 06:00
FM220500 18006KT P6SM OVC030
Wind Visibility Clouds
180° at 6 knots Greater than 6 miles
  • Overcast at 3,000' AGL
KPAE 210520Z 2106/2206 VRB04KT P6SM BKN250 FM211000 21010KT P6SM BKN010 FM211600 18008KT P6SM OVC015 FM211800 22007KT P6SM OVC025 FM212100 22007KT P6SM BKN035 FM220050 22007KT P6SM SCT040 FM220500 18006KT P6SM OVC030
Issued Jun-21 @ 05:20 UTC
(5 hours ago)
Valid From Jun-21 @ 06:00 UTC
(4 hours ago)
Valid To Jun-22 @ 06:00 UTC
(in 20 hours)
Jun-21 @ 06:00 - Jun-21 @ 10:00
Wind Visibility
Variable at 4 knots Greater than 6 miles
Clouds
  • Broken at 25,000' AGL
From Jun-21 @ 10:00 - Jun-21 @ 16:00
Wind Visibility
210° at 10 knots Greater than 6 miles
Clouds
  • Broken at 1,000' AGL
From Jun-21 @ 16:00 - Jun-21 @ 18:00
Wind Visibility
180° at 8 knots Greater than 6 miles
Clouds
  • Overcast at 1,500' AGL
From Jun-21 @ 18:00 - Jun-21 @ 21:00
Wind Visibility
220° at 7 knots Greater than 6 miles
Clouds
  • Overcast at 2,500' AGL
From Jun-21 @ 21:00 - Jun-22 @ 00:50
Wind Visibility
220° at 7 knots Greater than 6 miles
Clouds
  • Broken at 3,500' AGL
From Jun-22 @ 00:50 - Jun-22 @ 05:00
Wind Visibility
220° at 7 knots Greater than 6 miles
Clouds
  • Scattered at 4,000' AGL
From Jun-22 @ 05:00 - Jun-22 @ 06:00
Wind Visibility
180° at 6 knots Greater than 6 miles
Clouds
  • Overcast at 3,000' AGL